Terminal Aerodrome Forecast
Issued by NWS Melbourne, FL

Home | Current Version | Previous Version | Text Only | Print | Product List | Glossary On
Versions: 1 2 3 4 5 6 7 8 9 10 11
023
FTUS42 KMLB 300520
TAFVRB
TAF
KVRB 300520Z 3006/3106 VRB03KT P6SM SKC
     FM301400 17008KT P6SM SCT040
     FM301700 13012KT P6SM FEW045
     FM310000 16009KT P6SM SCT050 SCT100=

USA.gov is the U.S. government's official web portal to all federal, state and local government web resources and services.